Latest Coastal Weather Observations for Hobart

IDT60701

Issued at 11:21 pm EST Monday 3 August 2015 (issued every 10 minutes, with the page automatically refreshed every 10 minutes)

About coastal observations | Map of coastal stations | Coastal observations for TAS | Marine services | Other Formats
Station Details ID: 094029 Name: HOBART (ELLERSLIE ROAD) Lat: -42.89 Lon: 147.33 Height: 50.5 m
Data from the previous 72 hours. | See also: Recent months at Hobart
Date/Time
EST
Temp

°C
Wind Pressure Rain
since 9am
mm
Weather Cloud Vis
km
Sea
Height
m
Swell
Dir
 
Speed
knots
Gust
knots
hPa Trend Height
m
Period
s
Dir
03/11:00pm 3.1 NW 6 14 1016.4 - 4.8 - - - - - - -
03/10:30pm 3.2 NNW 11 14 1016.3 - 4.8 - - - - - - -
03/10:00pm 3.7 NW 10 14 1016.3 - 4.8 - - - - - - -
03/09:30pm 3.4 NW 7 11 1016.3 - 4.8 - - - - - - -
03/09:00pm 3.7 NNW 7 11 1016.1 - 4.8 - - - - - - -
03/08:30pm 4.0 NNW 6 8 1015.9 - 4.8 - - - - - - -
03/08:00pm 4.2 SSW 12 18 1015.2 - 4.8 - - - - - - -
03/07:30pm 4.4 SSW 15 26 1014.5 - 4.8 - - - - - - -
03/07:29pm 4.5 SSW 15 26 1014.4 - 4.8 - - - - - - -
03/07:00pm 4.7 WSW 10 15 1014.5 - 4.8 - - - - - - -
03/06:30pm 4.5 SW 9 14 1014.2 - 4.8 - - - - - - -
03/06:00pm 4.7 WNW 8 16 1013.6 - 4.8 Recent precip. - - - - - -
03/05:30pm 4.3 SW 13 20 1012.4 - 4.8 - - - - - - -
03/05:00pm 4.4 SW 18 28 1011.3 - 4.6 - - - - - - -
03/04:35pm 5.1 SW 17 27 1010.5 - 4.2 - - - - - - -
03/04:30pm 5.3 SW 17 26 1010.2 - 4.0 - - - - - - -
03/04:00pm 5.1 SW 15 26 1009.4 - 3.8 - - - - - - -
03/03:30pm 4.6 SW 15 26 1008.7 - 2.6 - - - - - - -
03/03:00pm 4.8 SW 16 34 1007.7 - 2.0 Rain - - - - - -
03/02:54pm 4.7 WSW 15 34 1007.6 - 2.0 - - - - - - -
03/02:53pm 4.8 WSW 15 34 1007.6 - 2.0 - - - - - - -
03/02:30pm 4.1 SW 14 20 1007.1 - 1.2 - - - - - - -
03/02:00pm 4.8 SW 9 17 1006.5 - 0.4 - - - - - - -
03/01:30pm 5.5 SW 11 20 1005.4 - 0.2 - - - - - - -
03/01:10pm 5.6 SW 15 26 1004.7 - 0.0 - - - - - - -
03/01:00pm 7.0 WSW 9 17 1004.4 - 0.0 - - - - - - -
03/12:30pm 6.8 SSW 15 26 1003.7 - 0.0 - - - - - - -
03/12:04pm 6.4 SW 15 25 1003.2 - 0.0 - - - - - - -
03/12:00pm 6.3 SW 16 25 1003.1 - 0.0 - - - - - - -
03/11:40am 6.4 SW 14 32 1002.7 - 0.0 - - - - - - -
03/11:30am 6.5 WSW 7 12 1002.9 - 0.0 - - - - - - -
03/11:00am 4.6 WSW 8 13 1002.8 - 0.0 - - - - - - -
03/10:30am 6.2 WSW 15 28 1001.6 - 0.0 - - - - - - -
03/10:14am 6.2 WSW 13 29 1001.2 - 0.0 - - - - - - -
03/10:00am 6.0 SW 7 14 1001.1 - 0.0 - - - - - - -
03/09:30am 4.7 WNW 16 29 1000.6 - 0.0 - - - - - - -
03/09:00am 4.5 WNW 19 32 999.8 - 9.0 Rain - - - - - -
03/08:58am 4.5 WNW 19 32 999.6 - 9.0 - - - - - - -
03/08:44am 3.1 NW 17 28 999.4 - 8.8 - - - - - - -
03/08:30am 2.9 NW 13 19 999.8 - 8.6 - - - - - - -
03/08:00am 4.0 W 15 29 999.4 - 8.4 - - - - - - -
03/07:30am 3.9 W 19 33 998.6 - 8.2 - - - - - - -
03/07:01am 2.2 NW 13 25 998.4 - 8.2 - - - - - - -
03/07:00am 2.4 NW 13 25 998.4 - 8.2 - - - - - - -
03/06:30am 2.7 WSW 14 23 998.9 - 8.2 - - - - - - -
03/06:22am 3.1 WSW 8 23 998.1 - 8.2 - - - - - - -
03/06:00am 1.2 NNW 7 10 997.2 - 8.2 - - - - - - -
03/05:30am 1.1 WSW 14 22 997.4 - 8.2 - - - - - - -
03/05:13am 3.6 WNW 15 25 996.9 - 8.2 - - - - - - -
03/05:00am 3.3 W 10 23 996.2 - 8.2 - - - - - - -
03/04:58am 3.2 WNW 8 23 996.3 - 8.2 - - - - - - -
03/04:30am 2.3 NNW 6 12 996.8 - 8.2 - - - - - - -
03/04:00am 2.4 SSE 5 8 996.4 - 7.8 - - - - - - -
03/03:30am 2.7 NW 11 15 995.3 - 7.6 - - - - - - -
03/03:00am 3.0 NW 11 18 995.0 - 7.4 - - - - - - -
03/02:30am 2.9 WNW 10 14 995.1 - 7.4 - - - - - - -
03/02:00am 2.7 NW 11 16 994.6 - 7.4 - - - - - - -
03/01:30am 2.6 NW 14 19 994.6 - 7.4 - - - - - - -
03/01:00am 3.2 NW 15 23 994.4 - 7.0 - - - - - - -
03/12:30am 3.0 NW 15 21 993.8 - 7.0 - - - - - - -
03/12:00am 3.2 NW 12 17 994.6 - 7.0 Rain - - - - - -
 
Date/Time
EST
Temp

°C
Wind Pressure Rain
since 9am
mm
Weather Cloud Vis
km
Sea
Height
m
Swell
Dir
 
Speed
knots
Gust
knots
hPa Trend Height
m
Period
s
Dir
02/11:30pm 3.2 NW 9 16 994.6 - 6.6 - - - - - - -
02/11:00pm 2.9 NW 10 17 994.5 - 6.6 - - - - - - -
02/10:30pm 2.4 NW 12 17 994.6 - 6.4 - - - - - - -
02/10:00pm 2.7 NW 15 22 994.9 - 5.4 - - - - - - -
02/09:30pm 3.8 NW 14 23 995.0 - 3.4 - - - - - - -
02/09:00pm 4.4 NW 14 23 995.0 - 3.2 - - - - - - -
02/08:30pm 4.5 NW 12 19 994.9 - 3.2 - - - - - - -
02/08:00pm 4.5 WNW 12 17 995.8 - 3.2 - - - - - - -
02/07:30pm 4.7 WNW 12 19 996.2 - 3.2 - - - - - - -
02/07:00pm 4.1 WNW 13 18 996.4 - 3.2 - - - - - - -
02/06:30pm 4.8 NW 14 23 996.3 - 3.0 - - - - - - -
02/06:00pm 5.0 NW 10 14 996.6 - 3.0 - - - - - - -
02/05:30pm 5.1 NW 13 19 996.3 - 3.0 - - - - - - -
02/05:00pm 5.2 NW 13 18 995.6 - 3.0 - - - - - - -
02/04:30pm 5.1 NW 13 19 995.2 - 3.0 - - - - - - -
02/04:00pm 5.1 NNW 14 20 995.0 - 3.0 - - - - - - -
02/03:30pm 5.5 NNW 12 17 995.2 - 3.0 - - - - - - -
02/03:05pm 5.9 W 10 30 995.6 - 3.0 - - - - - - -
02/03:00pm 6.9 WNW 9 20 995.4 - 3.0 - - - - - - -
02/02:35pm 6.6 NW 15 33 994.7 - 3.0 - - - - - - -
02/02:30pm 6.7 NW 13 26 994.8 - 3.0 - - - - - - -
02/02:00pm 6.7 NW 7 13 995.6 - 3.0 - - - - - - -
02/01:30pm 7.2 WNW 9 15 994.9 - 2.8 - - - - - - -
02/01:00pm 7.3 NW 17 27 994.4 - 2.8 - - - - - - -
02/12:39pm 7.6 WNW 24 40 994.0 - 2.0 - - - - - - -
02/12:30pm 8.0 WNW 29 46 993.7 - 1.2 - - - - - - -
02/12:28pm 8.1 NW 27 46 993.7 - 1.2 - - - - - - -
02/12:00pm 11.8 NW 23 37 992.9 - 0.0 - - - - - - -
02/11:30am 11.8 NW 22 32 993.6 - 0.0 - - - - - - -
02/11:00am 11.8 NNW 21 31 994.3 - 0.0 - - - - - - -
02/10:30am 11.8 NNW 23 34 994.8 - 0.0 - - - - - - -
02/10:12am 11.3 NNW 22 32 995.2 - 0.0 - - - - - - -
02/10:00am 11.0 NNW 22 31 995.5 - 0.0 - - - - - - -
02/09:30am 10.3 NNW 24 39 996.2 - 0.0 - - - - - - -
02/09:00am 9.0 NNW 21 31 997.0 - 0.0 - - - - - - -
02/08:30am 8.7 NNW 21 31 997.4 - 0.0 - - - - - - -
02/08:01am 8.1 NW 21 32 997.8 - 0.0 - - - - - - -
02/08:00am 8.0 NW 21 29 997.8 - 0.0 - - - - - - -
02/07:30am 8.1 NNW 24 32 998.0 - 0.0 - - - - - - -
02/07:00am 9.0 NW 27 40 997.9 - 0.0 - - - - - - -
02/06:30am 8.8 NW 25 35 998.1 - 0.0 - - - - - - -
02/06:19am 9.1 NW 27 45 998.1 - 0.0 - - - - - - -
02/06:00am 9.0 NW 25 35 998.5 - 0.0 - - - - - - -
02/05:30am 8.5 NW 24 35 998.7 - 0.0 - - - - - - -
02/05:00am 8.2 NW 21 33 999.3 - 0.0 - - - - - - -
02/04:31am 7.9 NW 15 28 999.9 - 0.0 - - - - - - -
02/04:30am 7.8 NW 15 23 1000.0 - 0.0 - - - - - - -
02/04:00am 8.0 NW 16 29 1000.7 - 0.0 - - - - - - -
02/03:51am 7.9 NW 17 29 1001.0 - 0.0 - - - - - - -
02/03:30am 7.6 NNW 11 21 1001.4 - 0.0 - - - - - - -
02/03:00am 8.0 NNW 15 25 1001.7 - 0.0 - - - - - - -
02/02:59am 8.0 NNW 15 25 1001.7 - 0.0 - - - - - - -
02/02:30am 7.7 NNW 12 22 1002.3 - 0.0 - - - - - - -
02/02:12am 7.9 NNW 15 27 1002.4 - 0.0 - - - - - - -
02/02:00am 7.6 NNW 14 25 1002.6 - 0.0 - - - - - - -
02/01:49am 7.8 NNW 15 25 1002.7 - 0.0 - - - - - - -
02/01:30am 7.6 NNW 14 21 1002.9 - 0.0 - - - - - - -
02/01:00am 7.4 NNW 11 17 1003.5 - 0.0 - - - - - - -
02/12:30am 7.1 N 9 15 1003.7 - 0.0 - - - - - - -
02/12:00am 7.1 N 10 17 1004.2 - 0.0 - - - - - - -
 
Date/Time
EST
Temp

°C
Wind Pressure Rain
since 9am
mm
Weather Cloud Vis
km
Sea
Height
m
Swell
Dir
 
Speed
knots
Gust
knots
hPa Trend Height
m
Period
s
Dir
01/11:30pm 6.9 N 11 17 1004.3 - 0.0 - - - - - - -
01/11:00pm 6.7 N 11 18 1004.7 - 0.0 - - - - - - -
01/10:30pm 6.7 N 11 21 1005.0 - 0.0 - - - - - - -
01/10:00pm 6.6 N 10 16 1005.4 - 0.0 - - - - - - -
01/09:30pm 6.8 N 11 17 1005.7 - 0.0 - - - - - - -
01/09:00pm 6.7 N 9 15 1005.7 - 0.0 - - - - - - -
01/08:30pm 6.5 N 10 14 1005.9 - 0.0 - - - - - - -
01/08:00pm 6.4 NNW 9 14 1006.4 - 0.0 - - - - - - -
01/07:30pm 6.8 N 12 19 1006.4 - 0.0 - - - - - - -
01/07:00pm 7.2 NNE 10 19 1005.9 - 0.0 - - - - - - -
01/06:30pm 7.4 N 13 19 1005.8 - 0.0 - - - - - - -
01/06:00pm 7.4 N 11 15 1005.1 - 0.0 - - - - - - -
01/05:30pm 7.4 N 11 19 1004.8 - 0.0 - - - - - - -
01/05:00pm 7.6 NW 17 27 1004.4 - 0.0 - - - - - - -
01/04:37pm 7.6 NNW 18 28 1004.0 - 0.0 - - - - - - -
01/04:30pm 7.6 NW 18 26 1003.8 - 0.0 - - - - - - -
01/04:05pm 8.2 NW 17 27 1004.2 - 0.0 - - - - - - -
01/04:00pm 8.2 NW 16 25 1004.2 - 0.0 - - - - - - -
01/03:30pm 9.0 WNW 16 26 1003.9 - 0.0 - - - - - - -
01/03:00pm 8.5 NW 15 26 1004.0 - 0.0 - - - - - - -
01/02:42pm 9.2 NW 17 28 1003.5 - 0.0 - - - - - - -
01/02:30pm 9.2 NW 16 23 1003.3 - 0.0 - - - - - - -
01/02:13pm 8.9 WNW 16 26 1003.1 - 0.0 - - - - - - -
01/02:00pm 8.6 NW 16 25 1003.0 - 0.0 - - - - - - -
01/01:30pm 7.6 NW 19 30 1003.1 - 0.0 - - - - - - -
01/01:12pm 7.4 NW 15 28 1003.3 - 0.0 - - - - - - -
01/01:00pm 9.1 NW 13 19 1003.4 - 0.0 - - - - - - -
01/12:30pm 9.6 WNW 17 25 1002.4 - 0.0 - - - - - - -
01/12:00pm 9.4 WNW 13 18 1002.6 - 0.0 - - - - - - -
01/11:30am 9.3 WNW 14 28 1002.5 - 0.0 - - - - - - -
01/11:00am 8.9 NW 14 23 1002.7 - 0.0 - - - - - - -
01/10:30am 8.8 WNW 19 34 1002.5 - 0.0 - - - - - - -
01/10:15am 8.4 WNW 15 29 1002.2 - 0.0 - - - - - - -
01/10:00am 7.8 W 12 20 1002.4 - 0.0 - - - - - - -
01/09:38am 8.3 WNW 15 36 1001.6 - 0.0 - - - - - - -
01/09:30am 7.9 NNW 10 27 1001.3 - 0.0 - - - - - - -
01/09:29am 7.9 NW 9 27 1001.0 - 0.0 - - - - - - -
01/09:00am 6.9 WNW 12 20 1000.4 - 3.0 Recent precip. - - - - - -
01/08:51am 7.2 WNW 14 26 1000.5 - 3.0 - - - - - - -
01/08:49am 7.3 NW 13 26 1000.3 - 3.0 - - - - - - -
01/08:30am 6.5 NW 8 13 1000.2 - 3.0 - - - - - - -
01/08:00am 6.6 WNW 9 16 1000.3 - 2.8 - - - - - - -
01/07:30am 6.6 NW 12 17 998.8 - 2.6 - - - - - - -
01/07:00am 6.6 NW 16 21 997.8 - 2.6 - - - - - - -
01/06:30am 6.9 NNW 13 19 997.6 - 2.4 - - - - - - -
01/06:02am 7.2 NW 15 25 997.5 - 2.2 - - - - - - -
01/06:00am 7.2 NW 16 25 997.3 - 2.2 Recent precip. - - - - - -
01/05:30am 7.7 WNW 20 33 997.0 - 2.0 - - - - - - -
01/05:03am 8.2 WNW 16 27 996.8 - 0.8 - - - - - - -
01/05:00am 8.3 WNW 16 24 996.7 - 0.6 - - - - - - -
01/04:30am 9.5 NW 15 22 996.0 - 0.0 - - - - - - -
01/04:09am 10.5 NNW 19 32 995.4 - 0.0 - - - - - - -
01/04:00am 10.6 NNW 20 27 995.8 - 0.0 - - - - - - -
01/03:30am 10.7 NNW 19 29 996.0 - 0.0 - - - - - - -
01/03:02am 10.5 NNW 19 29 996.7 - 0.0 - - - - - - -
01/03:00am 10.5 NNW 19 26 996.8 - 0.0 - - - - - - -
01/02:30am 10.5 NNW 20 32 997.6 - 0.0 - - - - - - -
01/02:00am 10.3 NNW 20 31 998.2 - 0.0 - - - - - - -
01/01:30am 10.4 NNW 23 33 998.7 - 0.0 - - - - - - -
01/01:12am 10.0 NNW 19 30 999.0 - 0.0 - - - - - - -
01/01:00am 9.8 NNW 16 22 998.8 - 0.0 - - - - - - -
01/12:30am 9.7 NNW 15 24 999.9 - 0.0 - - - - - - -
01/12:00am 9.4 NNW 13 21 1001.7 - 0.0 - - - - - - -
 
Date/Time
EST
Temp

°C
Wind Pressure Rain
since 9am
mm
Weather Cloud Vis
km
Sea
Height
m
Swell
Dir
 
Speed
knots
Gust
knots
hPa Trend Height
m
Period
s
Dir
31/11:30pm 8.7 NNW 9 15 1002.8 - 0.0 - - - - - - -

Other Formats:

Comma delimited format used in spreadsheet applications
http://www.bom.gov.au/fwo/IDT60701/IDT60701.94970.axf

JavaScript Object Notation format (JSON) in row-major order
http://www.bom.gov.au/fwo/IDT60701/IDT60701.94970.json